createdAt,value
2023-05-04T00:00:09.764Z,89024.00
2023-05-04T00:01:08.672Z,89022.00
2023-05-04T00:02:10.182Z,89022.00
2023-05-04T00:03:08.570Z,89022.00
2023-05-04T00:04:08.842Z,89024.00
2023-05-04T00:05:09.766Z,89025.00
2023-05-04T00:06:08.899Z,89022.00
2023-05-04T00:07:09.098Z,89022.00
2023-05-04T00:08:09.248Z,89018.00
2023-05-04T00:09:09.416Z,89020.00
2023-05-04T00:10:11.164Z,89022.00
2023-05-04T00:11:09.743Z,89020.00
2023-05-04T00:12:09.904Z,89022.00
2023-05-04T00:13:10.144Z,89020.00
2023-05-04T00:14:10.149Z,89022.00
2023-05-04T00:15:10.288Z,89022.00
2023-05-04T00:16:11.120Z,89022.00
2023-05-04T00:17:10.623Z,89024.00
2023-05-04T00:18:10.661Z,89022.00
2023-05-04T00:19:10.772Z,89024.00
2023-05-04T00:20:10.969Z,89020.00
2023-05-04T00:21:11.111Z,89020.00
2023-05-04T00:22:11.141Z,89022.00
2023-05-04T00:23:11.267Z,89020.00
2023-05-04T00:24:13.169Z,89020.00
2023-05-04T00:25:11.495Z,89018.00
2023-05-04T00:26:11.665Z,89020.00
2023-05-04T00:27:11.746Z,89020.00
2023-05-04T00:28:11.838Z,89016.00
2023-05-04T00:29:11.946Z,89016.00
2023-05-04T00:30:12.084Z,89014.00
2023-05-04T00:31:12.712Z,89012.00
2023-05-04T00:32:12.387Z,89010.00
2023-05-04T00:33:12.530Z,89012.00
2023-05-04T00:34:12.557Z,89010.00
2023-05-04T00:35:12.710Z,89010.00
2023-05-04T00:36:13.661Z,89010.00
2023-05-04T00:37:12.931Z,89003.00
2023-05-04T00:38:13.049Z,89003.00
2023-05-04T00:39:13.183Z,88999.00
2023-05-04T00:40:13.372Z,88999.00
2023-05-04T00:41:13.532Z,88997.00
2023-05-04T00:42:13.558Z,88997.00
2023-05-04T00:43:13.717Z,88999.00
2023-05-04T00:44:13.794Z,88997.00
2023-05-04T00:45:14.023Z,88999.00
2023-05-04T00:46:14.068Z,89001.00
2023-05-04T00:47:14.189Z,89001.00
2023-05-04T00:48:15.316Z,89003.00
2023-05-04T00:49:14.328Z,89003.00
2023-05-04T00:50:14.468Z,89001.00
2023-05-04T00:51:14.617Z,89003.00
2023-05-04T00:52:14.700Z,89001.00
2023-05-04T00:53:14.778Z,89001.00
2023-05-04T00:54:14.855Z,89001.00
2023-05-04T00:55:14.970Z,89001.00
2023-05-04T00:56:16.818Z,88997.00
2023-05-04T00:57:15.189Z,88999.00
2023-05-04T00:58:15.330Z,88999.00
2023-05-04T00:59:15.536Z,88997.00
2023-05-04T01:00:15.628Z,88997.00
2023-05-04T01:01:15.903Z,88997.00
2023-05-04T01:02:15.906Z,88997.00
2023-05-04T01:03:16.152Z,88997.00
2023-05-04T01:04:16.274Z,88997.00
2023-05-04T01:05:16.425Z,88999.00
2023-05-04T01:06:17.154Z,88999.00
2023-05-04T01:07:16.839Z,88999.00
2023-05-04T01:08:16.897Z,88997.00
2023-05-04T01:09:16.839Z,88997.00
2023-05-04T01:10:16.995Z,88995.00
2023-05-04T01:11:17.169Z,88997.00
2023-05-04T01:12:17.263Z,88997.00
2023-05-04T01:13:17.581Z,88997.00
2023-05-04T01:14:17.502Z,89001.00
2023-05-04T01:15:17.653Z,88999.00
2023-05-04T01:16:17.936Z,89001.00
2023-05-04T01:17:18.034Z,89001.00
2023-05-04T01:18:18.080Z,89003.00
2023-05-04T01:19:18.266Z,89001.00
2023-05-04T01:20:18.522Z,89010.00
2023-05-04T01:21:18.652Z,89003.00
2023-05-04T01:22:18.766Z,89003.00
2023-05-04T01:23:19.661Z,89003.00
2023-05-04T01:24:19.105Z,89001.00
2023-05-04T01:25:19.336Z,89003.00
2023-05-04T01:26:19.412Z,89003.00
2023-05-04T01:27:20.301Z,89001.00
2023-05-04T01:28:19.791Z,89001.00
2023-05-04T01:29:19.925Z,89001.00
2023-05-04T01:30:20.168Z,89001.00
2023-05-04T01:31:20.291Z,89001.00
2023-05-04T01:32:20.450Z,88999.00
2023-05-04T01:33:20.625Z,88997.00
2023-05-04T01:34:21.668Z,88997.00
2023-05-04T01:35:20.975Z,88995.00
2023-05-04T01:36:21.113Z,88997.00
2023-05-04T01:37:21.321Z,88993.00
2023-05-04T01:38:21.443Z,88997.00
2023-05-04T01:39:21.613Z,88999.00
2023-05-04T01:40:21.955Z,88995.00
2023-05-04T01:41:23.675Z,88997.00
2023-05-04T01:42:22.176Z,88995.00
2023-05-04T01:43:22.311Z,88995.00
2023-05-04T01:44:22.486Z,88997.00
2023-05-04T01:45:23.246Z,88995.00
2023-05-04T01:46:22.843Z,88993.00
2023-05-04T01:47:23.061Z,88993.00
2023-05-04T01:48:23.060Z,88993.00
2023-05-04T01:49:26.161Z,88993.00
2023-05-04T01:50:23.328Z,88991.00
2023-05-04T01:51:23.441Z,88989.00
2023-05-04T01:52:24.235Z,88989.00
2023-05-04T01:53:24.218Z,88991.00
2023-05-04T01:54:24.655Z,88985.00
2023-05-04T01:55:23.941Z,88987.00
2023-05-04T01:56:23.949Z,88987.00
2023-05-04T01:57:24.057Z,88987.00
2023-05-04T01:58:24.132Z,88985.00
2023-05-04T01:59:24.305Z,88985.00
2023-05-04T02:00:24.336Z,88987.00
2023-05-04T02:01:24.549Z,88987.00
2023-05-04T02:02:25.222Z,88987.00
2023-05-04T02:03:24.761Z,88987.00
2023-05-04T02:04:24.910Z,88989.00
2023-05-04T02:05:24.866Z,88985.00
2023-05-04T02:06:25.658Z,88983.00
2023-05-04T02:07:25.074Z,88987.00
2023-05-04T02:08:25.186Z,88987.00
2023-05-04T02:09:25.335Z,88985.00
2023-05-04T02:10:25.409Z,88985.00
2023-05-04T02:11:26.169Z,88985.00
2023-05-04T02:12:25.631Z,88983.00
2023-05-04T02:13:25.748Z,88985.00
2023-05-04T02:14:25.848Z,88983.00
2023-05-04T02:15:27.673Z,88983.00
2023-05-04T02:16:26.151Z,88981.00
2023-05-04T02:17:28.756Z,88981.00
2023-05-04T02:18:31.156Z,88983.00
2023-05-04T02:19:26.603Z,88983.00
2023-05-04T02:20:29.677Z,88985.00
2023-05-04T02:21:27.672Z,88981.00
2023-05-04T02:22:26.921Z,88981.00
2023-05-04T02:23:28.032Z,88981.00
2023-05-04T02:24:27.161Z,88983.00
2023-05-04T02:25:27.249Z,88983.00
2023-05-04T02:26:27.391Z,88985.00
2023-05-04T02:27:27.477Z,88981.00
2023-05-04T02:28:27.585Z,88981.00
2023-05-04T02:29:27.920Z,88985.00
2023-05-04T02:30:27.802Z,88985.00
2023-05-04T02:31:27.966Z,88983.00
2023-05-04T02:32:28.046Z,88983.00
2023-05-04T02:33:28.164Z,88983.00
2023-05-04T02:34:28.241Z,88983.00
2023-05-04T02:35:28.689Z,88985.00
2023-05-04T02:36:28.460Z,88985.00
2023-05-04T02:37:28.614Z,88985.00
2023-05-04T02:38:29.744Z,88985.00
2023-05-04T02:39:29.667Z,88983.00
2023-05-04T02:40:28.930Z,88983.00
2023-05-04T02:41:29.064Z,88985.00
2023-05-04T02:42:29.204Z,88987.00
2023-05-04T02:43:29.351Z,88987.00
2023-05-04T02:44:29.472Z,88987.00
2023-05-04T02:45:29.646Z,88991.00
2023-05-04T02:46:29.762Z,88989.00
2023-05-04T02:47:29.918Z,88991.00
2023-05-04T02:48:29.998Z,88989.00
2023-05-04T02:49:30.139Z,88989.00
2023-05-04T02:50:30.252Z,88993.00
2023-05-04T02:51:30.411Z,88991.00
2023-05-04T02:52:30.549Z,88991.00
2023-05-04T02:53:30.684Z,88993.00
2023-05-04T02:54:30.791Z,88989.00
2023-05-04T02:55:30.929Z,88991.00
2023-05-04T02:56:31.050Z,88989.00
2023-05-04T02:57:31.168Z,88991.00
2023-05-04T02:58:31.289Z,88989.00
2023-05-04T02:59:31.384Z,88991.00
2023-05-04T03:00:31.489Z,88989.00
2023-05-04T03:01:34.730Z,88989.00
2023-05-04T03:02:31.778Z,88989.00
2023-05-04T03:03:31.829Z,88987.00
2023-05-04T03:04:31.972Z,88989.00
2023-05-04T03:05:32.104Z,88989.00
2023-05-04T03:06:32.187Z,88991.00
2023-05-04T03:07:32.283Z,88991.00
2023-05-04T03:08:32.420Z,88995.00
2023-05-04T03:09:32.539Z,88993.00
2023-05-04T03:10:32.653Z,88995.00
2023-05-04T03:11:32.764Z,88997.00
2023-05-04T03:12:32.927Z,88997.00
2023-05-04T03:13:33.040Z,88999.00
2023-05-04T03:14:33.115Z,89001.00
2023-05-04T03:15:33.226Z,89001.00
2023-05-04T03:16:33.403Z,89001.00
2023-05-04T03:17:33.600Z,88997.00
2023-05-04T03:18:33.568Z,88997.00
2023-05-04T03:19:33.720Z,88997.00
2023-05-04T03:20:33.816Z,88999.00
2023-05-04T03:21:33.908Z,88997.00
2023-05-04T03:22:34.185Z,88999.00
2023-05-04T03:23:34.180Z,88999.00
2023-05-04T03:24:34.261Z,88999.00
2023-05-04T03:25:34.400Z,88997.00
2023-05-04T03:26:34.546Z,88999.00
2023-05-04T03:27:34.595Z,89001.00
2023-05-04T03:28:34.711Z,88999.00
2023-05-04T03:29:34.832Z,88999.00
2023-05-04T03:30:34.933Z,88999.00
2023-05-04T03:31:35.112Z,88995.00
2023-05-04T03:32:35.344Z,88999.00
2023-05-04T03:33:35.279Z,88999.00
2023-05-04T03:34:35.395Z,88997.00
2023-05-04T03:35:35.543Z,88997.00
2023-05-04T03:36:35.631Z,88997.00
2023-05-04T03:37:35.787Z,88999.00
2023-05-04T03:38:35.914Z,88995.00
2023-05-04T03:39:36.057Z,88995.00
2023-05-04T03:40:36.207Z,88997.00
2023-05-04T03:41:36.362Z,88995.00
2023-05-04T03:42:36.542Z,88997.00
2023-05-04T03:43:36.697Z,88997.00
2023-05-04T03:44:36.849Z,88997.00
2023-05-04T03:45:37.017Z,88999.00
2023-05-04T03:46:37.219Z,89001.00
2023-05-04T03:47:37.478Z,89001.00
2023-05-04T03:48:37.584Z,88999.00
2023-05-04T03:49:37.750Z,88999.00
2023-05-04T03:50:37.957Z,89001.00
2023-05-04T03:51:38.148Z,89001.00
2023-05-04T03:52:38.360Z,89010.00
2023-05-04T03:53:38.499Z,89010.00
2023-05-04T03:54:38.626Z,89003.00
2023-05-04T03:55:38.789Z,89003.00
2023-05-04T03:56:38.955Z,89010.00
2023-05-04T03:57:39.085Z,89010.00
2023-05-04T03:58:39.251Z,89003.00
2023-05-04T03:59:39.393Z,89010.00
2023-05-04T04:00:39.537Z,89010.00
2023-05-04T04:01:39.703Z,89012.00
2023-05-04T04:02:40.121Z,89003.00
2023-05-04T04:03:40.092Z,89010.00
2023-05-04T04:04:40.261Z,89010.00
2023-05-04T04:05:40.425Z,89012.00
2023-05-04T04:06:43.226Z,89014.00
2023-05-04T04:07:40.704Z,89010.00
2023-05-04T04:08:40.835Z,89012.00
2023-05-04T04:09:40.946Z,89010.00
2023-05-04T04:10:41.077Z,89012.00
2023-05-04T04:11:41.189Z,89001.00
2023-05-04T04:12:41.372Z,89010.00
2023-05-04T04:13:41.489Z,89010.00
2023-05-04T04:14:41.539Z,89012.00
2023-05-04T04:15:42.775Z,89014.00
2023-05-04T04:16:41.911Z,89014.00
2023-05-04T04:17:41.949Z,89014.00
2023-05-04T04:18:42.043Z,89014.00
2023-05-04T04:19:42.153Z,89014.00
2023-05-04T04:20:42.255Z,89014.00
2023-05-04T04:21:42.359Z,89016.00
2023-05-04T04:22:42.492Z,89014.00
2023-05-04T04:23:42.597Z,89012.00
2023-05-04T04:24:42.755Z,89012.00
2023-05-04T04:25:44.573Z,89012.00
2023-05-04T04:26:42.945Z,89012.00
2023-05-04T04:27:43.079Z,89014.00
2023-05-04T04:28:43.184Z,89018.00
2023-05-04T04:29:43.289Z,89016.00
2023-05-04T04:30:43.410Z,89016.00
2023-05-04T04:31:43.556Z,89016.00
2023-05-04T04:32:43.704Z,89016.00
2023-05-04T04:33:43.768Z,89016.00
2023-05-04T04:34:43.903Z,89014.00
2023-05-04T04:35:44.009Z,89016.00
2023-05-04T04:36:44.145Z,89014.00
2023-05-04T04:37:44.274Z,89018.00
2023-05-04T04:38:44.365Z,89016.00
2023-05-04T04:39:44.585Z,89016.00
2023-05-04T04:40:44.570Z,89014.00
2023-05-04T04:41:44.698Z,89016.00
2023-05-04T04:42:44.810Z,89014.00
2023-05-04T04:43:44.917Z,89014.00
2023-05-04T04:44:45.032Z,89014.00
2023-05-04T04:45:45.196Z,89016.00
2023-05-04T04:46:45.284Z,89016.00
2023-05-04T04:47:45.452Z,89014.00
2023-05-04T04:48:45.519Z,89012.00
2023-05-04T04:49:45.682Z,89010.00
2023-05-04T04:50:45.801Z,89003.00
2023-05-04T04:51:45.954Z,89003.00
2023-05-04T04:52:46.031Z,89001.00
2023-05-04T04:53:46.129Z,89001.00
2023-05-04T04:54:46.232Z,89001.00
2023-05-04T04:55:46.355Z,89003.00
2023-05-04T04:56:46.486Z,89001.00
2023-05-04T04:57:46.566Z,88999.00
2023-05-04T04:58:46.705Z,88999.00
2023-05-04T04:59:46.889Z,89001.00
2023-05-04T05:00:46.920Z,89001.00
2023-05-04T05:01:46.983Z,88999.00
2023-05-04T05:02:47.115Z,88999.00
2023-05-04T05:03:47.298Z,88999.00
2023-05-04T05:04:47.486Z,88997.00
2023-05-04T05:05:47.681Z,88999.00
2023-05-04T05:06:47.785Z,88993.00
2023-05-04T05:07:47.932Z,88997.00
2023-05-04T05:08:48.093Z,88997.00
2023-05-04T05:09:48.265Z,88999.00
2023-05-04T05:10:48.434Z,88995.00
2023-05-04T05:11:48.609Z,88995.00
2023-05-04T05:12:48.853Z,88995.00
2023-05-04T05:13:48.967Z,88993.00
2023-05-04T05:14:50.777Z,88997.00
2023-05-04T05:15:49.302Z,88995.00
2023-05-04T05:16:49.534Z,88995.00
2023-05-04T05:17:50.365Z,88995.00
2023-05-04T05:18:49.785Z,88995.00
2023-05-04T05:19:49.951Z,88995.00
2023-05-04T05:20:50.700Z,88997.00
2023-05-04T05:21:50.301Z,88997.00
2023-05-04T05:22:50.501Z,88999.00
2023-05-04T05:23:50.616Z,88999.00
2023-05-04T05:24:50.775Z,88995.00
2023-05-04T05:25:51.745Z,88995.00
2023-05-04T05:26:51.045Z,88993.00
2023-05-04T05:27:51.288Z,88991.00
2023-05-04T05:28:51.397Z,88993.00
2023-05-04T05:29:51.498Z,88991.00
2023-05-04T05:30:51.659Z,88989.00
2023-05-04T05:31:51.818Z,88989.00
2023-05-04T05:32:52.305Z,88987.00
2023-05-04T05:33:52.422Z,88989.00
2023-05-04T05:34:52.351Z,88993.00
2023-05-04T05:35:52.513Z,88989.00
2023-05-04T05:36:52.672Z,88989.00
2023-05-04T05:37:52.872Z,88991.00
2023-05-04T05:38:52.979Z,88987.00
2023-05-04T05:39:53.151Z,88987.00
2023-05-04T05:40:53.318Z,88989.00
2023-05-04T05:41:53.493Z,88987.00
2023-05-04T05:42:53.688Z,88991.00
2023-05-04T05:43:53.714Z,88991.00
2023-05-04T05:44:53.851Z,88991.00
2023-05-04T05:45:53.953Z,88989.00
2023-05-04T05:46:55.839Z,88989.00
2023-05-04T05:47:56.743Z,88987.00
2023-05-04T05:48:54.297Z,88989.00
2023-05-04T05:49:54.481Z,88987.00
2023-05-04T05:50:54.473Z,88983.00
2023-05-04T05:51:54.876Z,88983.00
2023-05-04T05:52:54.786Z,88983.00
2023-05-04T05:53:55.744Z,88983.00
2023-05-04T05:54:55.153Z,88983.00
2023-05-04T05:55:55.035Z,88981.00
2023-05-04T05:56:55.184Z,88983.00
2023-05-04T05:57:55.266Z,88981.00
2023-05-04T05:58:55.344Z,88983.00
2023-05-04T05:59:55.503Z,88987.00
2023-05-04T06:00:58.365Z,88983.00
2023-05-04T06:01:55.647Z,88985.00
2023-05-04T06:02:55.820Z,88981.00
2023-05-04T06:03:56.176Z,88981.00
2023-05-04T06:04:56.062Z,88979.00
2023-05-04T06:05:56.238Z,88977.00
2023-05-04T06:06:56.901Z,88975.00
2023-05-04T06:07:56.765Z,88981.00
2023-05-04T06:08:56.524Z,88975.00
2023-05-04T06:09:56.553Z,88979.00
2023-05-04T06:10:56.502Z,88977.00
2023-05-04T06:11:56.621Z,88973.00
2023-05-04T06:12:56.950Z,88973.00
2023-05-04T06:13:57.824Z,88973.00
2023-05-04T06:14:57.707Z,88969.00
2023-05-04T06:15:57.030Z,88971.00
2023-05-04T06:16:57.085Z,88967.00
2023-05-04T06:17:57.190Z,88965.00
2023-05-04T06:19:00.333Z,88967.00
2023-05-04T06:19:57.443Z,88967.00
2023-05-04T06:20:57.455Z,88965.00
2023-05-04T06:21:57.538Z,88967.00
2023-05-04T06:22:57.755Z,88965.00
2023-05-04T06:23:57.811Z,88962.00
2023-05-04T06:25:03.718Z,88964.00
2023-05-04T06:26:01.720Z,88964.00
2023-05-04T06:26:58.043Z,88962.00
2023-05-04T06:27:58.267Z,88962.00
2023-05-04T06:28:58.123Z,88958.00
2023-05-04T06:29:58.360Z,88958.00
2023-05-04T06:30:58.391Z,88958.00
2023-05-04T06:31:58.488Z,88956.00
2023-05-04T06:33:00.268Z,88956.00
2023-05-04T06:33:59.287Z,88954.00
2023-05-04T06:34:58.636Z,88958.00
2023-05-04T06:35:58.718Z,88960.00
2023-05-04T06:36:58.685Z,88954.00
2023-05-04T06:37:58.767Z,88954.00
2023-05-04T06:38:58.823Z,88956.00
2023-05-04T06:39:58.886Z,88954.00
2023-05-04T06:40:58.973Z,88954.00
2023-05-04T06:41:58.961Z,88952.00
2023-05-04T06:42:59.025Z,88952.00
2023-05-04T06:43:59.080Z,88948.00
2023-05-04T06:44:59.082Z,88948.00
2023-05-04T06:46:00.280Z,88948.00
2023-05-04T06:46:59.201Z,88950.00
2023-05-04T06:47:59.306Z,88946.00
2023-05-04T06:48:59.338Z,88946.00
2023-05-04T06:49:59.411Z,88944.00
2023-05-04T06:51:01.494Z,88944.00
2023-05-04T06:51:59.514Z,88942.00
2023-05-04T06:54:19.052Z,88940.00
2023-05-04T06:55:19.023Z,88936.00
2023-05-04T06:56:18.985Z,88936.00
2023-05-04T06:57:18.940Z,88938.00
2023-05-04T06:58:18.967Z,88938.00
2023-05-04T06:59:18.873Z,88936.00
2023-05-04T07:00:18.855Z,88936.00
2023-05-04T07:01:18.925Z,88936.00
2023-05-04T07:02:18.849Z,88932.00
2023-05-04T07:03:18.795Z,88930.00
2023-05-04T07:04:18.726Z,88932.00
2023-05-04T07:05:18.736Z,88932.00
2023-05-04T07:06:18.661Z,88930.00
2023-05-04T07:07:19.201Z,88928.00
2023-05-04T07:08:18.594Z,88932.00
2023-05-04T07:09:18.688Z,88932.00
2023-05-04T07:10:18.513Z,88928.00
2023-05-04T07:11:18.585Z,88930.00
2023-05-04T07:12:18.438Z,88930.00
2023-05-04T07:13:18.487Z,88932.00
2023-05-04T07:14:18.681Z,88928.00
2023-05-04T07:15:18.371Z,88928.00
2023-05-04T07:16:18.349Z,88928.00
2023-05-04T07:17:18.200Z,88930.00
2023-05-04T07:18:18.266Z,88928.00
2023-05-04T07:19:18.187Z,88928.00
2023-05-04T07:20:18.088Z,88928.00
2023-05-04T07:22:17.962Z,88926.00
2023-05-04T07:23:17.895Z,88920.00
2023-05-04T07:24:18.736Z,88922.00
2023-05-04T07:25:17.776Z,88920.00
2023-05-04T07:26:17.684Z,88922.00
2023-05-04T07:27:17.624Z,88922.00
2023-05-04T07:28:18.215Z,88916.00
2023-05-04T07:29:17.676Z,88920.00
2023-05-04T07:30:17.642Z,88918.00
2023-05-04T07:31:17.637Z,88918.00
2023-05-04T07:32:17.684Z,88918.00
2023-05-04T07:33:17.871Z,88916.00
2023-05-04T07:34:17.497Z,88912.00
2023-05-04T07:35:19.217Z,88912.00
2023-05-04T07:36:17.395Z,88910.00
2023-05-04T07:37:18.348Z,88910.00
2023-05-04T07:38:18.332Z,88909.00
2023-05-04T07:39:20.207Z,88909.00
2023-05-04T07:40:18.245Z,88907.00
2023-05-04T07:41:18.033Z,88907.00
2023-05-04T07:42:17.331Z,88907.00
2023-05-04T07:43:17.776Z,88903.00
2023-05-04T07:44:17.046Z,88901.00
2023-05-04T07:45:16.794Z,88901.00
2023-05-04T07:46:16.806Z,88897.00
2023-05-04T07:47:16.658Z,88893.00
2023-05-04T07:48:17.990Z,88889.00
2023-05-04T07:49:16.453Z,88889.00
2023-05-04T07:50:16.410Z,88891.00
2023-05-04T07:51:16.545Z,88887.00
2023-05-04T07:52:16.251Z,88889.00
2023-05-04T07:53:16.712Z,88887.00
2023-05-04T07:54:22.046Z,88885.00
2023-05-04T07:55:15.996Z,88883.00
2023-05-04T07:56:15.956Z,88881.00
2023-05-04T07:57:16.706Z,88881.00
2023-05-04T07:58:15.791Z,88879.00
2023-05-04T07:59:15.687Z,88883.00
2023-05-04T08:00:15.673Z,88877.00
2023-05-04T08:01:15.529Z,88879.00
2023-05-04T08:02:15.637Z,88877.00
2023-05-04T08:03:15.602Z,88879.00
2023-05-04T08:04:16.210Z,88877.00
2023-05-04T08:05:15.206Z,88877.00
2023-05-04T08:06:15.095Z,88875.00
2023-05-04T08:07:15.708Z,88873.00
2023-05-04T08:08:16.234Z,88871.00
2023-05-04T08:09:14.819Z,88871.00
2023-05-04T08:10:14.738Z,88871.00
2023-05-04T08:11:20.622Z,88869.00
2023-05-04T08:12:15.236Z,88867.00
2023-05-04T08:13:14.438Z,88867.00
2023-05-04T08:14:14.415Z,88865.00
2023-05-04T08:15:14.215Z,88869.00
2023-05-04T08:16:14.139Z,88869.00
2023-05-04T08:17:14.048Z,88869.00
2023-05-04T08:18:13.945Z,88867.00
2023-05-04T08:19:14.814Z,88867.00
2023-05-04T08:20:13.814Z,88869.00
2023-05-04T08:21:13.712Z,88867.00
2023-05-04T08:22:13.610Z,88863.00
2023-05-04T08:23:13.490Z,88860.00
2023-05-04T08:24:13.545Z,88862.00
2023-05-04T08:25:16.253Z,88858.00
2023-05-04T08:26:13.361Z,88862.00
2023-05-04T08:27:13.726Z,88860.00
2023-05-04T08:28:13.079Z,88858.00
2023-05-04T08:29:13.052Z,88854.00
2023-05-04T08:30:14.199Z,88856.00
2023-05-04T08:31:14.010Z,88856.00
2023-05-04T08:32:12.746Z,88856.00
2023-05-04T08:33:12.728Z,88854.00
2023-05-04T08:34:12.851Z,88852.00
2023-05-04T08:35:12.594Z,88848.00
2023-05-04T08:36:13.241Z,88850.00
2023-05-04T08:37:12.220Z,88852.00
2023-05-04T08:38:12.191Z,88848.00
2023-05-04T08:39:12.064Z,88844.00
2023-05-04T08:40:12.167Z,88850.00
2023-05-04T08:41:12.383Z,88846.00
2023-05-04T08:42:11.887Z,88840.00
2023-05-04T08:43:11.723Z,88846.00
2023-05-04T08:44:11.777Z,88840.00
2023-05-04T08:45:11.890Z,88844.00
2023-05-04T08:46:11.620Z,88842.00
2023-05-04T08:47:12.468Z,88846.00
2023-05-04T08:48:11.323Z,88844.00
2023-05-04T08:49:11.786Z,88846.00
2023-05-04T08:50:11.411Z,88842.00
2023-05-04T08:51:11.121Z,88842.00
2023-05-04T08:52:11.029Z,88844.00
2023-05-04T08:53:10.892Z,88844.00
2023-05-04T08:54:10.827Z,88842.00
2023-05-04T08:55:10.773Z,88842.00
2023-05-04T08:56:10.648Z,88838.00
2023-05-04T08:57:10.712Z,88840.00
2023-05-04T08:58:10.473Z,88838.00
2023-05-04T08:59:10.399Z,88840.00
2023-05-04T09:00:11.476Z,88838.00
2023-05-04T09:01:10.361Z,88836.00
2023-05-04T09:02:10.200Z,88836.00
2023-05-04T09:03:10.381Z,88834.00
2023-05-04T09:04:10.108Z,88834.00
2023-05-04T09:05:11.084Z,88834.00
2023-05-04T09:06:10.030Z,88832.00
2023-05-04T09:07:09.728Z,88834.00
2023-05-04T09:08:09.595Z,88830.00
2023-05-04T09:09:11.329Z,88830.00
2023-05-04T09:10:09.592Z,88832.00
2023-05-04T09:11:09.463Z,88830.00
2023-05-04T09:12:09.443Z,88832.00
2023-05-04T09:13:09.269Z,88830.00
2023-05-04T09:14:09.201Z,88830.00
2023-05-04T09:15:10.178Z,88834.00
2023-05-04T09:16:09.307Z,88828.00
2023-05-04T09:17:09.061Z,88832.00
2023-05-04T09:18:08.828Z,88828.00
2023-05-04T09:19:09.020Z,88832.00
2023-05-04T09:20:08.651Z,88834.00
2023-05-04T09:21:08.813Z,88828.00
2023-05-04T09:22:09.437Z,88830.00
2023-05-04T09:23:08.615Z,88830.00
2023-05-04T09:24:08.573Z,88826.00
2023-05-04T09:25:08.413Z,88824.00
2023-05-04T09:26:08.472Z,88822.00
2023-05-04T09:27:08.352Z,88824.00
2023-05-04T09:28:08.328Z,88820.00
2023-05-04T09:29:08.235Z,88822.00
2023-05-04T09:30:08.203Z,88822.00
2023-05-04T09:31:09.228Z,88820.00
2023-05-04T09:32:07.996Z,88820.00
2023-05-04T09:33:08.139Z,88820.00
2023-05-04T09:34:07.812Z,88816.00
2023-05-04T09:35:07.942Z,88818.00
2023-05-04T09:36:07.635Z,88816.00
2023-05-04T09:37:07.585Z,88813.00
2023-05-04T09:38:07.437Z,88815.00
2023-05-04T09:39:11.365Z,88813.00
2023-05-04T09:40:07.309Z,88815.00
2023-05-04T09:41:07.143Z,88813.00
2023-05-04T09:42:07.070Z,88815.00
2023-05-04T09:43:07.737Z,88813.00
2023-05-04T09:44:06.837Z,88813.00
2023-05-04T09:45:06.886Z,88813.00
2023-05-04T09:46:06.740Z,88807.00
2023-05-04T09:47:06.465Z,88807.00
2023-05-04T09:48:09.384Z,88807.00
2023-05-04T09:49:06.266Z,88807.00
2023-05-04T09:50:06.152Z,88803.00
2023-05-04T09:51:06.118Z,88805.00
2023-05-04T09:52:05.993Z,88805.00
2023-05-04T09:53:05.842Z,88799.00
2023-05-04T09:54:05.691Z,88799.00
2023-05-04T09:55:05.809Z,88799.00
2023-05-04T09:56:08.011Z,88795.00
2023-05-04T09:57:05.305Z,88795.00
2023-05-04T09:58:05.196Z,88789.00
2023-05-04T09:59:05.291Z,88793.00
2023-05-04T10:00:04.929Z,88791.00
2023-05-04T10:01:04.794Z,88791.00
2023-05-04T10:02:14.487Z,88785.00
2023-05-04T10:03:05.614Z,88789.00
2023-05-04T10:04:04.531Z,88789.00
2023-05-04T10:05:07.494Z,88787.00
2023-05-04T10:06:04.312Z,88789.00
2023-05-04T10:07:04.192Z,88783.00
2023-05-04T10:08:04.091Z,88783.00
2023-05-04T10:09:04.011Z,88779.00
2023-05-04T10:10:04.898Z,88777.00
2023-05-04T10:11:04.035Z,88777.00
2023-05-04T10:12:03.703Z,88779.00
2023-05-04T10:13:04.323Z,88779.00
2023-05-04T10:14:03.566Z,88777.00
2023-05-04T10:15:03.562Z,88775.00
2023-05-04T10:16:03.367Z,88775.00
2023-05-04T10:17:03.315Z,88775.00
2023-05-04T10:18:03.760Z,88775.00
2023-05-04T10:19:02.983Z,88773.00
2023-05-04T10:20:02.849Z,88771.00
2023-05-04T10:21:02.723Z,88771.00
2023-05-04T10:22:02.641Z,88771.00
2023-05-04T10:23:02.449Z,88773.00
2023-05-04T10:24:02.353Z,88769.00
2023-05-04T10:25:02.306Z,88769.00
2023-05-04T10:26:02.088Z,88767.00
2023-05-04T10:27:01.985Z,88769.00
2023-05-04T10:28:02.779Z,88769.00
2023-05-04T10:29:01.792Z,88773.00
2023-05-04T10:30:01.692Z,88765.00
2023-05-04T10:31:01.610Z,88767.00
2023-05-04T10:32:01.649Z,88765.00
2023-05-04T10:33:01.382Z,88771.00
2023-05-04T10:34:01.211Z,88763.00
2023-05-04T10:35:01.089Z,88763.00
2023-05-04T10:36:00.965Z,88765.00
2023-05-04T10:37:01.774Z,88763.00
2023-05-04T10:38:00.773Z,88763.00
2023-05-04T10:39:00.748Z,88765.00
2023-05-04T10:40:00.531Z,88758.00
2023-05-04T10:41:00.425Z,88763.00
2023-05-04T10:42:00.300Z,88761.00
2023-05-04T10:43:00.251Z,88761.00
2023-05-04T10:44:00.286Z,88760.00
2023-05-04T10:45:00.028Z,88761.00
2023-05-04T10:46:00.792Z,88760.00
2023-05-04T10:47:00.786Z,88758.00
2023-05-04T10:48:00.377Z,88758.00
2023-05-04T10:49:00.336Z,88760.00
2023-05-04T10:49:59.579Z,88754.00
2023-05-04T10:51:00.563Z,88754.00
2023-05-04T10:51:59.406Z,88745.00
2023-05-04T10:53:00.071Z,88745.00
2023-05-04T10:53:59.295Z,88741.00
2023-05-04T10:54:59.163Z,88756.00
2023-05-04T10:55:59.066Z,88747.00
2023-05-04T10:56:59.790Z,88754.00
2023-05-04T10:57:58.949Z,88743.00
2023-05-04T10:58:58.923Z,88737.00
2023-05-04T10:59:58.726Z,88735.00
2023-05-04T11:00:58.701Z,88741.00
2023-05-04T11:01:58.570Z,88733.00
2023-05-04T11:02:58.551Z,88743.00
2023-05-04T11:03:58.813Z,88735.00
2023-05-04T11:04:58.285Z,88737.00
2023-05-04T11:05:58.962Z,88743.00
2023-05-04T11:06:58.766Z,88737.00
2023-05-04T11:08:00.436Z,88743.00
2023-05-04T11:08:58.149Z,88731.00
2023-05-04T11:09:58.111Z,88731.00
2023-05-04T11:10:58.098Z,88737.00
2023-05-04T11:11:57.983Z,88739.00
2023-05-04T11:12:57.977Z,88735.00
2023-05-04T11:13:58.081Z,88727.00
2023-05-04T11:14:57.906Z,88725.00
2023-05-04T11:15:57.959Z,88733.00
2023-05-04T11:16:57.881Z,88731.00
2023-05-04T11:17:57.761Z,88733.00
2023-05-04T11:18:57.743Z,88729.00
2023-05-04T11:19:57.918Z,88723.00
2023-05-04T11:20:57.732Z,88727.00
2023-05-04T11:21:57.656Z,88719.00
2023-05-04T11:22:57.623Z,88727.00
2023-05-04T11:23:57.581Z,88725.00
2023-05-04T11:24:57.576Z,88725.00
2023-05-04T11:25:57.618Z,88725.00
2023-05-04T11:26:57.455Z,88721.00
2023-05-04T11:27:57.417Z,88723.00
2023-05-04T11:28:58.571Z,88729.00
2023-05-04T11:30:00.065Z,88721.00
2023-05-04T11:30:56.863Z,88727.00
2023-05-04T11:31:56.974Z,88723.00
2023-05-04T11:32:56.771Z,88717.00
2023-05-04T11:33:57.434Z,88715.00
2023-05-04T11:34:56.693Z,88711.00
2023-05-04T11:35:56.499Z,88719.00
2023-05-04T11:36:56.360Z,88713.00
2023-05-04T11:37:56.499Z,88711.00
2023-05-04T11:38:56.442Z,88711.00
2023-05-04T11:39:56.094Z,88709.00
2023-05-04T11:40:56.103Z,88713.00
2023-05-04T11:41:58.858Z,88707.00
2023-05-04T11:42:56.888Z,88711.00
2023-05-04T11:43:55.719Z,88711.00
2023-05-04T11:44:56.367Z,88711.00
2023-05-04T11:45:55.632Z,88711.00
2023-05-04T11:46:56.436Z,88715.00